Terminal Aerodrome Forecast
Issued by NWS St Louis, MO

Home | Current Version | Previous Version | Text Only | Print | Product List | Glossary On
Versions: 1 2 3 4 5 6 7 8 9 10 11 12 13 14 15 16 17 18 19 20 21 22 23 24 25 26 27 28 29 30 31 32 33 34 35 36
246
FTUS43 KLSX 260908 AAA
TAFSTL
TAF AMD
KSTL 260908Z 2609/2712 19007KT P6SM BKN070
      TEMPO 2613/2615 5SM -TSRA BKN040CB
     FM262200 18009KT P6SM SCT120
     FM270800 19005KT P6SM -SHRA BKN040=

USA.gov is the U.S. government's official web portal to all federal, state and local government web resources and services.